Time,TemperatureF,DewpointF,PressureIn,WindDirection,WindDirectionDegrees,WindSpeedMPH,WindSpeedGustMPH,Humidity,HourlyPrecipIn,Conditions,Clouds,dailyrainin,SoftwareType,DateUTC
2013-04-25 00:23:00,36.0,35.0,-100.00,South,183,0.0,2.0,95,0.00,,,0.80,,2013-04-25 04:23:00,
2013-04-25 00:33:00,36.0,35.0,-100.00,South,183,0.0,2.0,95,0.00,,,0.80,,2013-04-25 04:33:00,
2013-04-25 00:43:00,36.0,35.0,-100.00,South,183,0.0,2.0,95,0.00,,,0.80,,2013-04-25 04:43:00,
2013-04-25 00:52:00,36.0,35.0,-100.00,South,183,0.0,2.0,95,0.00,,,0.80,,2013-04-25 04:52:00,
2013-04-25 01:22:00,35.0,34.0,-100.00,South,189,1.0,4.0,96,0.00,,,0.80,,2013-04-25 05:22:00,
2013-04-25 01:32:00,35.0,34.0,-100.00,South,189,1.0,4.0,96,0.00,,,0.80,,2013-04-25 05:32:00,
2013-04-25 01:42:00,35.0,34.0,-100.00,South,189,1.0,4.0,96,0.00,,,0.80,,2013-04-25 05:42:00,
2013-04-25 01:51:00,35.0,34.0,-100.00,South,189,1.0,4.0,96,0.00,,,0.80,,2013-04-25 05:51:00,
2013-04-25 02:22:00,35.0,34.0,-100.00,SSW,198,2.0,4.0,96,0.00,,,0.80,,2013-04-25 06:22:00,
2013-04-25 02:32:00,35.0,34.0,-100.00,SSW,198,2.0,4.0,96,0.00,,,0.80,,2013-04-25 06:32:00,
2013-04-25 02:42:00,35.0,34.0,-100.00,SSW,198,2.0,4.0,96,0.00,,,0.80,,2013-04-25 06:42:00,
2013-04-25 02:52:00,35.0,34.0,-100.00,SSW,198,2.0,4.0,96,0.00,,,0.80,,2013-04-25 06:52:00,
2013-04-25 03:22:00,35.0,34.0,-100.00,SSW,193,2.0,5.0,96,0.00,,,0.80,,2013-04-25 07:22:00,
2013-04-25 03:32:00,35.0,34.0,-100.00,SSW,193,2.0,5.0,96,0.00,,,0.80,,2013-04-25 07:32:00,
2013-04-25 03:42:00,35.0,34.0,-100.00,SSW,193,2.0,5.0,96,0.00,,,0.80,,2013-04-25 07:42:00,
2013-04-25 03:52:00,35.0,34.0,-100.00,SSW,193,2.0,5.0,96,0.00,,,0.80,,2013-04-25 07:52:00,
2013-04-25 04:22:00,34.0,33.0,-100.00,SSW,197,0.0,3.0,96,0.00,,,-99.99,,2013-04-25 08:22:00,
2013-04-25 04:32:00,34.0,33.0,-100.00,SSW,197,0.0,3.0,96,0.00,,,-99.99,,2013-04-25 08:32:00,
2013-04-25 04:42:00,34.0,33.0,-100.00,SSW,197,0.0,3.0,96,0.00,,,-99.99,,2013-04-25 08:42:00,
2013-04-25 04:52:00,34.0,33.0,-100.00,SSW,197,0.0,3.0,96,0.00,,,-99.99,,2013-04-25 08:52:00,
2013-04-25 05:21:00,33.0,32.0,-100.00,SSW,204,0.0,3.0,97,0.00,,,0.80,,2013-04-25 09:21:00,
2013-04-25 05:33:00,33.0,32.0,-100.00,SSW,204,0.0,3.0,97,0.00,,,0.80,,2013-04-25 09:33:00,
2013-04-25 05:42:00,33.0,32.0,-100.00,SSW,204,0.0,3.0,97,0.00,,,0.80,,2013-04-25 09:42:00,
2013-04-25 05:52:00,33.0,32.0,-100.00,SSW,204,0.0,3.0,97,0.00,,,0.80,,2013-04-25 09:52:00,
2013-04-25 06:22:00,33.0,32.0,-100.00,SSW,212,1.0,4.0,97,0.00,,,0.80,,2013-04-25 10:22:00,
2013-04-25 06:33:00,33.0,32.0,-100.00,SSW,212,1.0,4.0,97,0.00,,,0.80,,2013-04-25 10:33:00,
2013-04-25 06:42:00,33.0,32.0,-100.00,SSW,212,1.0,4.0,97,0.00,,,0.80,,2013-04-25 10:42:00,
2013-04-25 06:52:00,33.0,32.0,-100.00,SSW,212,1.0,4.0,97,0.00,,,0.80,,2013-04-25 10:52:00,
2013-04-25 07:22:00,32.0,31.0,-100.00,SW,222,2.0,3.0,97,0.00,,,0.80,,2013-04-25 11:22:00,
2013-04-25 07:32:00,32.0,31.0,-100.00,SW,222,2.0,3.0,97,0.00,,,0.80,,2013-04-25 11:32:00,
2013-04-25 07:42:00,32.0,31.0,-100.00,SW,222,2.0,3.0,97,0.00,,,0.80,,2013-04-25 11:42:00,
2013-04-25 07:51:00,32.0,31.0,-100.00,SW,222,2.0,3.0,97,0.00,,,0.80,,2013-04-25 11:51:00,
2013-04-25 08:22:00,36.0,35.0,-100.00,SSW,192,2.0,5.0,96,0.00,,,0.73,,2013-04-25 12:22:00,
2013-04-25 08:32:00,36.0,35.0,-100.00,SSW,192,2.0,5.0,96,0.00,,,0.73,,2013-04-25 12:32:00,
2013-04-25 08:42:00,36.0,35.0,-100.00,SSW,192,2.0,5.0,96,0.00,,,0.73,,2013-04-25 12:42:00,
2013-04-25 08:51:00,36.0,35.0,-100.00,SSW,192,2.0,5.0,96,0.00,,,0.73,,2013-04-25 12:51:00,
2013-04-25 09:21:00,42.0,36.0,-100.00,SSW,197,4.0,7.0,78,0.00,,,0.65,,2013-04-25 13:21:00,
2013-04-25 09:32:00,42.0,36.0,-100.00,SSW,197,4.0,7.0,78,0.00,,,0.65,,2013-04-25 13:32:00,
2013-04-25 09:42:00,42.0,36.0,-100.00,SSW,197,4.0,7.0,78,0.00,,,0.65,,2013-04-25 13:42:00,
2013-04-25 09:52:00,42.0,36.0,-100.00,SSW,197,4.0,7.0,78,0.00,,,0.65,,2013-04-25 13:52:00,
2013-04-25 10:22:00,46.0,32.0,-100.00,SW,219,6.0,12.0,59,0.00,,,0.45,,2013-04-25 14:22:00,
2013-04-25 10:32:00,46.0,32.0,-100.00,SW,219,6.0,12.0,59,0.00,,,0.45,,2013-04-25 14:32:00,
2013-04-25 10:42:00,46.0,32.0,-100.00,SW,219,6.0,12.0,59,0.00,,,0.45,,2013-04-25 14:42:00,
2013-04-25 10:51:00,46.0,32.0,-100.00,SW,219,6.0,12.0,59,0.00,,,0.45,,2013-04-25 14:51:00,
2013-04-25 11:21:00,50.0,34.0,-100.00,SSW,203,7.0,14.0,53,0.00,,,0.17,,2013-04-25 15:21:00,
2013-04-25 11:33:00,50.0,34.0,-100.00,SSW,203,7.0,14.0,53,0.00,,,0.17,,2013-04-25 15:33:00,
2013-04-25 11:42:00,50.0,34.0,-100.00,SSW,203,7.0,14.0,53,0.00,,,0.17,,2013-04-25 15:42:00,
2013-04-25 11:53:00,50.0,34.0,-100.00,SSW,203,7.0,14.0,53,0.00,,,0.17,,2013-04-25 15:53:00,
2013-04-25 12:24:00,52.0,33.0,-100.00,WSW,251,8.0,15.0,49,0.00,,,0.04,,2013-04-25 16:24:00,
2013-04-25 12:33:00,52.0,33.0,-100.00,WSW,251,8.0,15.0,49,0.00,,,0.04,,2013-04-25 16:33:00,
2013-04-25 12:43:00,52.0,33.0,-100.00,WSW,251,8.0,15.0,49,0.00,,,0.04,,2013-04-25 16:43:00,
2013-04-25 12:52:00,52.0,33.0,-100.00,WSW,251,8.0,15.0,49,0.00,,,0.04,,2013-04-25 16:52:00,
2013-04-25 13:22:00,54.0,34.0,-100.00,SW,229,8.0,16.0,46,0.00,,,0.01,,2013-04-25 17:22:00,
2013-04-25 13:32:00,54.0,34.0,-100.00,SW,229,8.0,16.0,46,0.00,,,0.01,,2013-04-25 17:32:00,
2013-04-25 13:42:00,54.0,34.0,-100.00,SW,229,8.0,16.0,46,0.00,,,0.01,,2013-04-25 17:42:00,
2013-04-25 13:53:00,54.0,34.0,-100.00,SW,229,8.0,16.0,46,0.00,,,0.01,,2013-04-25 17:53:00,
2013-04-25 14:22:00,57.0,34.0,-100.00,SW,233,8.0,20.0,42,0.00,,,0.00,,2013-04-25 18:22:00,
2013-04-25 14:32:00,57.0,34.0,-100.00,SW,233,8.0,20.0,42,0.00,,,0.00,,2013-04-25 18:32:00,
2013-04-25 14:43:00,57.0,34.0,-100.00,SW,233,8.0,20.0,42,0.00,,,0.00,,2013-04-25 18:43:00,
2013-04-25 14:52:00,57.0,34.0,-100.00,SW,233,8.0,20.0,42,0.00,,,0.00,,2013-04-25 18:52:00,
2013-04-25 15:21:00,57.0,35.0,-100.00,WSW,241,6.0,21.0,44,0.00,,,0.00,,2013-04-25 19:21:00,
2013-04-25 15:32:00,57.0,35.0,-100.00,WSW,241,6.0,21.0,44,0.00,,,0.00,,2013-04-25 19:32:00,
2013-04-25 15:42:00,57.0,35.0,-100.00,WSW,241,6.0,21.0,44,0.00,,,0.00,,2013-04-25 19:42:00,
2013-04-25 15:52:00,57.0,35.0,-100.00,WSW,241,6.0,21.0,44,0.00,,,0.00,,2013-04-25 19:52:00,
2013-04-25 16:22:00,58.0,36.0,-100.00,SW,226,8.0,16.0,43,0.00,,,0.00,,2013-04-25 20:22:00,
2013-04-25 16:32:00,58.0,36.0,-100.00,SW,226,8.0,16.0,43,0.00,,,0.00,,2013-04-25 20:32:00,
2013-04-25 16:42:00,58.0,36.0,-100.00,SW,226,8.0,16.0,43,0.00,,,0.00,,2013-04-25 20:42:00,
2013-04-25 16:52:00,58.0,36.0,-100.00,SW,226,8.0,16.0,43,0.00,,,0.00,,2013-04-25 20:52:00,
2013-04-25 17:22:00,60.0,35.0,-100.00,WSW,254,6.0,15.0,39,0.00,,,-99.99,,2013-04-25 21:22:00,
2013-04-25 17:33:00,60.0,35.0,-100.00,WSW,254,6.0,15.0,39,0.00,,,-99.99,,2013-04-25 21:33:00,
2013-04-25 17:42:00,60.0,35.0,-100.00,WSW,254,6.0,15.0,39,0.00,,,-99.99,,2013-04-25 21:42:00,
2013-04-25 17:52:00,60.0,35.0,-100.00,WSW,254,6.0,15.0,39,0.00,,,-99.99,,2013-04-25 21:52:00,
2013-04-25 18:22:00,60.0,34.0,-100.00,West,274,8.0,17.0,38,0.00,,,0.00,,2013-04-25 22:22:00,
2013-04-25 18:33:00,60.0,34.0,-100.00,West,274,8.0,17.0,38,0.00,,,0.00,,2013-04-25 22:33:00,
2013-04-25 18:42:00,60.0,34.0,-100.00,West,274,8.0,17.0,38,0.00,,,0.00,,2013-04-25 22:42:00,
2013-04-25 18:52:00,60.0,34.0,-100.00,West,274,8.0,17.0,38,0.00,,,0.00,,2013-04-25 22:52:00,
2013-04-25 19:22:00,59.0,33.0,-100.00,West,259,5.0,15.0,37,0.00,,,0.00,,2013-04-25 23:22:00,
2013-04-25 19:32:00,59.0,33.0,-100.00,West,259,5.0,15.0,37,0.00,,,0.00,,2013-04-25 23:32:00,
2013-04-25 19:42:00,59.0,33.0,-100.00,West,259,5.0,15.0,37,0.00,,,0.00,,2013-04-25 23:42:00,
2013-04-25 19:52:00,59.0,33.0,-100.00,West,259,5.0,15.0,37,0.00,,,0.00,,2013-04-25 23:52:00,
2013-04-25 20:22:00,54.0,31.0,-100.00,West,265,4.0,13.0,41,0.00,,,0.00,,2013-04-26 00:22:00,
2013-04-25 20:32:00,54.0,31.0,-100.00,West,265,4.0,13.0,41,0.00,,,0.00,,2013-04-26 00:32:00,
2013-04-25 20:42:00,54.0,31.0,-100.00,West,265,4.0,13.0,41,0.00,,,0.00,,2013-04-26 00:42:00,
2013-04-25 20:51:00,54.0,31.0,-100.00,West,265,4.0,13.0,41,0.00,,,0.00,,2013-04-26 00:51:00,
2013-04-25 21:21:00,51.0,30.0,-100.00,NW,316,4.0,8.0,45,0.00,,,0.00,,2013-04-26 01:21:00,
2013-04-25 21:32:00,51.0,30.0,-100.00,NW,316,4.0,8.0,45,0.00,,,0.00,,2013-04-26 01:32:00,
2013-04-25 21:42:00,51.0,30.0,-100.00,NW,316,4.0,8.0,45,0.00,,,0.00,,2013-04-26 01:42:00,
2013-04-25 21:52:00,51.0,30.0,-100.00,NW,316,4.0,8.0,45,0.00,,,0.00,,2013-04-26 01:52:00,
2013-04-25 23:22:00,46.0,29.0,-100.00,NW,314,3.0,7.0,52,-99.99,,,-99.99,,2013-04-26 03:22:00,
2013-04-25 23:33:00,46.0,29.0,-100.00,NW,314,3.0,7.0,52,-99.99,,,-99.99,,2013-04-26 03:33:00,
2013-04-25 23:43:00,46.0,29.0,-100.00,NW,314,3.0,7.0,52,-99.99,,,-99.99,,2013-04-26 03:43:00,
2013-04-25 23:53:00,46.0,29.0,-100.00,NW,314,3.0,7.0,52,-99.99,,,-99.99,,2013-04-26 03:53:00,